createdAt,value
2023-04-08T00:01:00.429Z,6.90
2023-04-08T00:03:32.513Z,7.00
2023-04-08T00:06:00.817Z,6.90
2023-04-08T00:08:27.572Z,7.00
2023-04-08T00:10:56.854Z,7.00
2023-04-08T00:13:23.619Z,7.00
2023-04-08T00:15:50.368Z,7.00
2023-04-08T00:18:17.189Z,7.00
2023-04-08T00:20:43.945Z,7.00
2023-04-08T00:23:11.014Z,7.00
2023-04-08T00:25:37.748Z,7.00
2023-04-08T00:28:04.472Z,7.00
2023-04-08T00:30:31.327Z,6.90
2023-04-08T00:32:58.235Z,6.90
2023-04-08T00:35:25.692Z,6.90
2023-04-08T00:37:55.279Z,6.90
2023-04-08T00:40:22.026Z,6.90
2023-04-08T00:42:51.235Z,6.90
2023-04-08T00:45:17.979Z,6.90
2023-04-08T00:47:44.888Z,7.00
2023-04-08T00:50:11.768Z,7.00
2023-04-08T00:52:38.510Z,7.00
2023-04-08T00:55:05.693Z,6.90
2023-04-08T00:57:32.502Z,6.90
2023-04-08T00:59:59.584Z,6.80
2023-04-08T01:02:35.238Z,6.80
2023-04-08T01:05:04.217Z,6.70
2023-04-08T01:07:38.129Z,6.80
2023-04-08T01:10:12.526Z,6.70
2023-04-08T01:12:41.686Z,6.80
2023-04-08T01:15:11.822Z,6.80
2023-04-08T01:17:39.048Z,6.80
2023-04-08T01:20:09.037Z,6.80
2023-04-08T01:22:36.035Z,6.90
2023-04-08T01:25:09.016Z,6.90
2023-04-08T01:27:35.804Z,6.80
2023-04-08T01:30:04.596Z,6.90
2023-04-08T01:32:34.203Z,6.90
2023-04-08T01:35:01.263Z,6.80
2023-04-08T01:37:30.524Z,6.80
2023-04-08T01:39:57.691Z,6.80
2023-04-08T01:42:25.854Z,6.80
2023-04-08T01:44:53.582Z,6.80
2023-04-08T01:47:20.553Z,6.70
2023-04-08T01:49:47.509Z,6.80
2023-04-08T01:52:14.706Z,6.70
2023-04-08T01:54:41.439Z,6.70
2023-04-08T01:57:10.786Z,6.70
2023-04-08T01:59:38.695Z,6.70
2023-04-08T02:02:06.808Z,6.80
2023-04-08T02:04:34.501Z,6.80
2023-04-08T02:07:01.739Z,6.70
2023-04-08T02:09:29.514Z,6.80
2023-04-08T02:11:58.541Z,6.90
2023-04-08T02:14:26.337Z,6.90
2023-04-08T02:17:05.368Z,6.90
2023-04-08T02:19:37.088Z,6.90
2023-04-08T02:22:09.211Z,6.90
2023-04-08T02:24:36.385Z,6.90
2023-04-08T02:27:03.910Z,7.00
2023-04-08T02:29:31.927Z,7.00
2023-04-08T02:32:01.536Z,6.90
2023-04-08T02:34:30.133Z,6.90
2023-04-08T02:36:56.946Z,6.90
2023-04-08T02:39:30.881Z,6.90
2023-04-08T02:41:57.639Z,6.90
2023-04-08T02:44:29.265Z,6.90
2023-04-08T02:46:58.804Z,6.90
2023-04-08T02:49:25.666Z,6.90
2023-04-08T02:51:52.396Z,6.90
2023-04-08T02:54:28.654Z,6.90
2023-04-08T02:56:55.487Z,6.80
2023-04-08T02:59:22.212Z,6.80
2023-04-08T03:01:49.137Z,6.80
2023-04-08T03:04:15.904Z,6.80
2023-04-08T03:06:42.819Z,6.80
2023-04-08T03:09:09.631Z,6.80
2023-04-08T03:11:38.892Z,6.90
2023-04-08T03:14:05.654Z,6.90
2023-04-08T03:16:34.751Z,6.90
2023-04-08T03:19:01.863Z,6.90
2023-04-08T03:21:31.560Z,6.90
2023-04-08T03:24:00.734Z,6.90
2023-04-08T03:26:27.477Z,6.90
2023-04-08T03:28:54.290Z,6.90
2023-04-08T03:31:23.414Z,6.90
2023-04-08T03:33:52.528Z,6.90
2023-04-08T03:36:19.229Z,6.90
2023-04-08T03:38:46.113Z,6.80
2023-04-08T03:41:15.407Z,6.80
2023-04-08T03:43:42.194Z,6.80
2023-04-08T03:46:08.906Z,6.90
2023-04-08T03:48:38.114Z,6.90
2023-04-08T03:51:04.834Z,6.90
2023-04-08T03:53:34.051Z,6.90
2023-04-08T03:56:02.705Z,6.90
2023-04-08T03:58:32.033Z,6.90
2023-04-08T04:00:58.926Z,6.90
2023-04-08T04:03:27.894Z,6.90
2023-04-08T04:05:57.160Z,6.90
2023-04-08T04:08:23.884Z,6.90
2023-04-08T04:10:55.101Z,6.90
2023-04-08T04:13:22.007Z,6.90
2023-04-08T04:15:48.753Z,6.90
2023-04-08T04:18:15.541Z,6.90
2023-04-08T04:20:45.749Z,6.90
2023-04-08T04:23:12.627Z,7.00
2023-04-08T04:25:42.519Z,6.90
2023-04-08T04:28:14.033Z,6.90
2023-04-08T04:30:40.838Z,7.00
2023-04-08T04:33:12.116Z,7.00
2023-04-08T04:35:39.647Z,7.00
2023-04-08T04:38:12.309Z,7.00
2023-04-08T04:40:41.522Z,7.00
2023-04-08T04:43:13.156Z,7.00
2023-04-08T04:45:39.887Z,7.00
2023-04-08T04:48:06.866Z,7.00
2023-04-08T04:50:33.622Z,7.00
2023-04-08T04:53:02.796Z,7.00
2023-04-08T04:55:32.073Z,7.00
2023-04-08T04:58:01.774Z,7.10
2023-04-08T05:00:33.570Z,7.10
2023-04-08T05:03:00.543Z,7.10
2023-04-08T05:05:27.440Z,7.10
2023-04-08T05:07:54.221Z,7.10
2023-04-08T05:10:23.510Z,7.10
2023-04-08T05:12:50.317Z,7.10
2023-04-08T05:15:17.034Z,7.10
2023-04-08T05:17:43.786Z,7.10
2023-04-08T05:20:10.988Z,7.10
2023-04-08T05:22:37.751Z,7.10
2023-04-08T05:25:06.798Z,7.10
2023-04-08T05:27:33.529Z,7.10
2023-04-08T05:30:05.332Z,7.10
2023-04-08T05:32:32.124Z,7.10
2023-04-08T05:34:58.792Z,7.10
2023-04-08T05:37:25.501Z,7.20
2023-04-08T05:39:52.254Z,7.20
2023-04-08T05:42:18.934Z,7.20
2023-04-08T05:44:45.643Z,7.30
2023-04-08T05:47:13.020Z,7.30
2023-04-08T05:49:42.089Z,7.30
2023-04-08T05:52:11.413Z,7.30
2023-04-08T05:54:38.301Z,7.40
2023-04-08T05:57:05.362Z,7.40
2023-04-08T05:59:34.579Z,7.40
2023-04-08T06:02:01.500Z,7.40
2023-04-08T06:04:28.360Z,7.40
2023-04-08T06:06:56.808Z,7.40
2023-04-08T06:09:25.820Z,7.50
2023-04-08T06:11:54.871Z,7.50
2023-04-08T06:14:24.163Z,7.50
2023-04-08T06:16:51.049Z,7.50
2023-04-08T06:19:18.042Z,7.50
2023-04-08T06:21:44.773Z,7.60
2023-04-08T06:24:13.837Z,7.60
2023-04-08T06:26:40.635Z,7.60
2023-04-08T06:29:09.489Z,7.70
2023-04-08T06:31:36.595Z,7.70
2023-04-08T06:34:03.362Z,7.70
2023-04-08T06:36:34.789Z,7.80
2023-04-08T06:39:01.691Z,7.80
2023-04-08T06:41:28.534Z,7.90
2023-04-08T06:44:02.327Z,7.90
2023-04-08T06:46:29.155Z,8.00
2023-04-08T06:48:58.381Z,8.00
2023-04-08T06:51:28.223Z,8.10
2023-04-08T06:53:57.332Z,8.10
2023-04-08T06:56:26.185Z,8.10
2023-04-08T06:58:55.529Z,8.20
2023-04-08T07:01:25.458Z,8.20
2023-04-08T07:03:52.818Z,8.30
2023-04-08T07:06:19.698Z,8.30
2023-04-08T07:08:46.484Z,8.30
2023-04-08T07:11:15.805Z,8.30
2023-04-08T07:13:43.412Z,8.40
2023-04-08T07:16:10.446Z,8.40
2023-04-08T07:18:37.923Z,8.50
2023-04-08T07:21:04.769Z,8.50
2023-04-08T07:23:31.562Z,8.60
2023-04-08T07:26:05.499Z,8.70
2023-04-08T07:28:32.761Z,8.70
2023-04-08T07:31:11.205Z,8.70
2023-04-08T07:33:38.132Z,8.70
2023-04-08T07:36:05.337Z,8.80
2023-04-08T07:38:34.818Z,8.80
2023-04-08T07:41:06.304Z,8.80
2023-04-08T07:43:37.315Z,8.90
2023-04-08T07:46:07.696Z,8.90
2023-04-08T07:48:35.586Z,8.90
2023-04-08T07:51:11.087Z,9.00
2023-04-08T07:53:40.791Z,9.00
2023-04-08T07:56:15.154Z,9.00
2023-04-08T07:58:44.461Z,9.00
2023-04-08T08:01:19.723Z,9.00
2023-04-08T08:03:47.637Z,9.00
2023-04-08T08:06:15.301Z,9.00
2023-04-08T08:08:44.742Z,8.90
2023-04-08T08:11:14.125Z,9.00
2023-04-08T08:13:43.260Z,9.00
2023-04-08T08:16:14.842Z,9.00
2023-04-08T08:18:43.895Z,9.00
2023-04-08T08:21:10.815Z,9.10
2023-04-08T08:23:38.120Z,9.30
2023-04-08T08:26:11.905Z,9.40
2023-04-08T08:28:39.489Z,9.50
2023-04-08T08:31:09.181Z,9.50
2023-04-08T08:33:36.291Z,9.50
2023-04-08T08:36:05.604Z,9.60
2023-04-08T08:38:34.879Z,9.60
2023-04-08T08:41:03.860Z,9.70
2023-04-08T08:43:34.017Z,9.70
2023-04-08T08:46:00.899Z,9.70
2023-04-08T08:48:28.049Z,9.70
2023-04-08T08:50:58.000Z,9.60
2023-04-08T08:53:32.755Z,9.60
2023-04-08T08:56:17.702Z,9.70
2023-04-08T08:58:49.353Z,9.60
2023-04-08T09:01:37.765Z,9.50
2023-04-08T09:04:45.958Z,9.60
2023-04-08T09:07:13.953Z,9.60
2023-04-08T09:09:51.165Z,11.00
2023-04-08T09:12:18.376Z,13.20
2023-04-08T09:14:45.322Z,12.90
2023-04-08T09:17:12.656Z,12.50
2023-04-08T09:19:39.652Z,12.00
2023-04-08T09:22:08.391Z,11.60
2023-04-08T09:24:37.458Z,11.20
2023-04-08T09:27:07.446Z,11.00
2023-04-08T09:29:36.694Z,10.70
2023-04-08T09:32:08.716Z,10.60
2023-04-08T09:34:35.731Z,10.40
2023-04-08T09:37:02.735Z,10.30
2023-04-08T09:39:30.864Z,10.20
2023-04-08T09:42:01.413Z,10.10
2023-04-08T09:44:30.409Z,10.10
2023-04-08T09:47:08.255Z,10.00
2023-04-08T09:49:43.457Z,10.00
2023-04-08T09:52:30.824Z,10.00
2023-04-08T09:55:06.415Z,10.00
2023-04-08T09:57:41.617Z,9.90
2023-04-08T10:00:13.483Z,9.90
2023-04-08T10:03:12.440Z,9.90
2023-04-08T10:05:41.933Z,9.90
2023-04-08T10:08:10.459Z,9.80
2023-04-08T10:10:39.205Z,9.80
2023-04-08T10:13:09.886Z,9.70
2023-04-08T10:15:39.495Z,9.70
2023-04-08T10:18:09.131Z,10.00
2023-04-08T10:20:36.029Z,10.90
2023-04-08T10:23:17.182Z,11.50
2023-04-08T10:25:50.875Z,11.90
2023-04-08T10:28:18.100Z,12.00
2023-04-08T10:30:53.894Z,12.00
2023-04-08T10:33:24.377Z,11.80
2023-04-08T10:36:10.080Z,11.40
2023-04-08T10:38:37.404Z,11.40
2023-04-08T10:41:10.938Z,11.30
2023-04-08T10:43:40.383Z,11.30
2023-04-08T10:46:13.348Z,11.60
2023-04-08T10:48:42.754Z,11.70
2023-04-08T10:51:09.858Z,11.50
2023-04-08T10:53:39.617Z,11.50
2023-04-08T10:56:12.851Z,11.50
2023-04-08T10:58:50.533Z,11.50
2023-04-08T11:01:20.708Z,11.60
2023-04-08T11:03:48.314Z,11.70
2023-04-08T11:06:15.544Z,11.70
2023-04-08T11:08:45.110Z,11.50
2023-04-08T11:11:12.282Z,11.40
2023-04-08T11:13:52.607Z,11.50
2023-04-08T11:16:27.855Z,11.40
2023-04-08T11:18:55.581Z,11.30
2023-04-08T11:21:29.432Z,11.10
2023-04-08T11:24:01.128Z,11.00
2023-04-08T11:26:29.313Z,11.10
2023-04-08T11:28:58.434Z,11.20
2023-04-08T11:31:25.601Z,11.40
2023-04-08T11:33:58.486Z,11.60
2023-04-08T11:36:30.090Z,11.70
2023-04-08T11:38:59.380Z,11.80
2023-04-08T11:41:37.737Z,11.70
2023-04-08T11:44:06.923Z,11.60
2023-04-08T11:46:40.884Z,11.40
2023-04-08T11:49:10.116Z,11.30
2023-04-08T11:51:59.234Z,11.20
2023-04-08T11:54:30.309Z,11.30
2023-04-08T11:57:00.114Z,11.40
2023-04-08T11:59:29.293Z,11.50
2023-04-08T12:01:57.505Z,11.50
2023-04-08T12:04:24.584Z,11.50
2023-04-08T12:06:52.494Z,11.60
2023-04-08T12:09:19.652Z,11.80
2023-04-08T12:11:51.296Z,12.10
2023-04-08T12:14:18.232Z,12.50
2023-04-08T12:16:47.252Z,12.70
2023-04-08T12:19:14.108Z,12.90
2023-04-08T12:21:45.601Z,13.30
2023-04-08T12:24:12.516Z,13.70
2023-04-08T12:26:39.446Z,14.10
2023-04-08T12:29:06.586Z,14.90
2023-04-08T12:31:33.448Z,14.90
2023-04-08T12:34:00.405Z,14.80
2023-04-08T12:36:27.428Z,14.60
2023-04-08T12:38:54.299Z,14.60
2023-04-08T12:41:21.726Z,14.50
2023-04-08T12:43:53.144Z,14.70
2023-04-08T12:46:20.140Z,15.00
2023-04-08T12:48:51.410Z,14.70
2023-04-08T12:51:26.713Z,14.60
2023-04-08T12:53:55.874Z,14.50
2023-04-08T12:56:22.831Z,14.30
2023-04-08T12:58:49.958Z,15.10
2023-04-08T13:01:19.504Z,15.90
2023-04-08T13:03:47.894Z,16.50
2023-04-08T13:06:15.502Z,16.40
2023-04-08T13:08:44.761Z,16.00
2023-04-08T13:11:11.777Z,15.40
2023-04-08T13:13:41.111Z,14.90
2023-04-08T13:16:08.117Z,14.70
2023-04-08T13:18:34.960Z,14.60
2023-04-08T13:21:04.178Z,14.90
2023-04-08T13:23:31.325Z,14.90
2023-04-08T13:26:00.446Z,15.00
2023-04-08T13:28:29.382Z,15.50
2023-04-08T13:30:58.458Z,16.00
2023-04-08T13:33:27.510Z,16.30
2023-04-08T13:35:56.875Z,16.40
2023-04-08T13:38:23.870Z,16.30
2023-04-08T13:40:55.756Z,16.60
2023-04-08T13:43:22.630Z,17.70
2023-04-08T13:45:49.567Z,18.00
2023-04-08T13:48:18.875Z,19.10
2023-04-08T13:50:46.844Z,18.80
2023-04-08T13:53:13.656Z,18.00
2023-04-08T13:55:42.754Z,17.40
2023-04-08T13:58:22.919Z,17.40
2023-04-08T14:00:53.491Z,16.70
2023-04-08T14:03:20.720Z,16.20
2023-04-08T14:05:51.097Z,16.50
2023-04-08T14:08:25.105Z,16.70
2023-04-08T14:10:52.536Z,18.60
2023-04-08T14:13:19.645Z,17.80
2023-04-08T14:15:49.819Z,19.20
2023-04-08T14:18:19.565Z,20.20
2023-04-08T14:20:47.150Z,20.40
2023-04-08T14:23:14.044Z,22.30
2023-04-08T14:25:41.113Z,23.70
2023-04-08T14:28:08.121Z,24.80
2023-04-08T14:30:37.799Z,25.50
2023-04-08T14:33:07.240Z,26.90
2023-04-08T14:35:34.630Z,27.50
2023-04-08T14:38:01.585Z,25.90
2023-04-08T14:40:31.084Z,24.60
2023-04-08T14:42:57.986Z,22.90
2023-04-08T14:45:27.087Z,21.10
2023-04-08T14:47:56.065Z,19.70
2023-04-08T14:50:25.253Z,18.40
2023-04-08T14:52:52.178Z,17.40
2023-04-08T14:55:19.145Z,16.70
2023-04-08T14:57:45.900Z,16.20
2023-04-08T15:00:12.994Z,15.70
2023-04-08T15:02:39.827Z,15.40
2023-04-08T15:05:07.097Z,15.10
2023-04-08T15:07:34.013Z,15.00
2023-04-08T15:10:00.863Z,15.10
2023-04-08T15:12:27.732Z,15.20
2023-04-08T15:14:56.808Z,15.40
2023-04-08T15:17:23.798Z,15.30
2023-04-08T15:19:53.177Z,15.30
2023-04-08T15:22:21.064Z,15.20
2023-04-08T15:24:48.080Z,15.00
2023-04-08T15:27:15.875Z,14.90
2023-04-08T15:29:45.288Z,14.70
2023-04-08T15:32:12.158Z,15.60
2023-04-08T15:34:41.189Z,18.60
2023-04-08T15:37:10.224Z,20.00
2023-04-08T15:39:41.515Z,22.10
2023-04-08T15:42:09.046Z,23.30
2023-04-08T15:44:36.523Z,24.50
2023-04-08T15:47:04.660Z,26.10
2023-04-08T15:49:36.520Z,27.40
2023-04-08T15:52:03.551Z,28.40
2023-04-08T15:54:32.645Z,28.60
2023-04-08T15:57:05.033Z,28.40
2023-04-08T15:59:34.344Z,26.80
2023-04-08T16:02:01.419Z,25.40
2023-04-08T16:04:28.806Z,23.80
2023-04-08T16:06:58.077Z,22.30
2023-04-08T16:09:26.925Z,20.60
2023-04-08T16:11:53.864Z,19.00
2023-04-08T16:14:23.043Z,17.90
2023-04-08T16:16:52.414Z,17.10
2023-04-08T16:19:22.179Z,16.40
2023-04-08T16:21:51.418Z,15.90
2023-04-08T16:24:20.768Z,15.50
2023-04-08T16:26:47.858Z,15.10
2023-04-08T16:29:17.265Z,14.80
2023-04-08T16:31:43.995Z,14.50
2023-04-08T16:34:11.220Z,14.40
2023-04-08T16:36:40.955Z,14.30
2023-04-08T16:39:07.794Z,14.20
2023-04-08T16:41:34.498Z,14.10
2023-04-08T16:44:01.363Z,14.10
2023-04-08T16:46:28.110Z,14.00
2023-04-08T16:48:54.890Z,13.90
2023-04-08T16:51:23.776Z,13.80
2023-04-08T16:53:50.919Z,13.70
2023-04-08T16:56:18.691Z,13.60
2023-04-08T16:58:45.442Z,13.60
2023-04-08T17:01:14.225Z,13.40
2023-04-08T17:07:41.693Z,12.90
2023-04-08T17:10:08.794Z,12.40
2023-04-08T17:12:36.383Z,12.20
2023-04-08T17:15:03.581Z,12.00
2023-04-08T17:17:30.847Z,11.90
2023-04-08T17:20:00.152Z,11.80
2023-04-08T17:22:27.613Z,11.60
2023-04-08T17:24:54.454Z,11.60
2023-04-08T17:27:21.559Z,11.50
2023-04-08T17:29:48.454Z,11.40
2023-04-08T17:32:15.436Z,11.30
2023-04-08T17:34:42.482Z,11.20
2023-04-08T17:37:10.160Z,11.00
2023-04-08T17:39:40.571Z,11.00
2023-04-08T17:42:08.213Z,10.90
2023-04-08T17:44:35.072Z,10.70
2023-04-08T17:47:02.307Z,10.70
2023-04-08T17:49:29.242Z,10.70
2023-04-08T17:51:56.440Z,10.60
2023-04-08T17:54:24.272Z,10.60
2023-04-08T17:56:53.285Z,10.60
2023-04-08T17:59:20.030Z,10.50
2023-04-08T18:01:46.941Z,10.40
2023-04-08T18:04:14.158Z,10.30
2023-04-08T18:06:41.102Z,10.30
2023-04-08T18:09:07.898Z,10.30
2023-04-08T18:11:34.659Z,10.40
2023-04-08T18:14:03.513Z,10.40
2023-04-08T18:16:30.498Z,10.30
2023-04-08T18:18:59.713Z,10.20
2023-04-08T18:21:27.095Z,10.20
2023-04-08T18:23:55.914Z,10.20
2023-04-08T18:26:22.810Z,10.20
2023-04-08T18:28:49.629Z,10.20
2023-04-08T18:31:16.679Z,10.20
2023-04-08T18:33:43.637Z,10.20
2023-04-08T18:36:13.927Z,10.20
2023-04-08T18:38:45.822Z,10.20
2023-04-08T18:41:16.255Z,10.10
2023-04-08T18:43:45.101Z,10.10
2023-04-08T18:46:11.935Z,10.10
2023-04-08T18:48:38.721Z,10.20
2023-04-08T18:51:05.524Z,10.10
2023-04-08T18:54:03.194Z,10.20
2023-04-08T18:56:30.050Z,10.20
2023-04-08T18:58:56.848Z,10.20
2023-04-08T19:01:23.655Z,10.10
2023-04-08T19:03:50.963Z,10.10
2023-04-08T19:06:20.905Z,10.10
2023-04-08T19:08:50.332Z,10.10
2023-04-08T19:11:19.554Z,10.10
2023-04-08T19:13:48.592Z,10.10
2023-04-08T19:16:15.462Z,10.00
2023-04-08T19:18:44.591Z,10.00
2023-04-08T19:21:13.501Z,10.10
2023-04-08T19:23:41.353Z,10.10
2023-04-08T19:30:09.292Z,10.00
2023-04-08T19:32:38.741Z,9.90
2023-04-08T19:35:05.927Z,9.90
2023-04-08T19:37:32.690Z,10.00
2023-04-08T19:39:59.554Z,10.00
2023-04-08T19:42:26.351Z,10.00
2023-04-08T19:44:53.180Z,10.00
2023-04-08T19:47:20.022Z,10.00
2023-04-08T19:49:46.817Z,10.00
2023-04-08T19:52:13.558Z,10.00
2023-04-08T19:54:41.386Z,10.00
2023-04-08T19:57:11.515Z,10.00
2023-04-08T19:59:38.449Z,10.00
2023-04-08T20:02:05.474Z,10.00
2023-04-08T20:04:34.823Z,10.00
2023-04-08T20:07:03.650Z,10.00
2023-04-08T20:09:32.328Z,9.90
2023-04-08T20:12:04.431Z,9.90
2023-04-08T20:14:40.419Z,9.90
2023-04-08T20:17:07.535Z,9.80
2023-04-08T20:19:34.394Z,9.80
2023-04-08T20:22:01.693Z,9.80
2023-04-08T20:24:28.495Z,9.80
2023-04-08T20:26:55.205Z,9.70
2023-04-08T20:29:22.040Z,9.70
2023-04-08T20:31:51.893Z,9.60
2023-04-08T20:34:18.696Z,9.60
2023-04-08T20:36:45.434Z,9.60
2023-04-08T20:39:12.423Z,9.60
2023-04-08T20:41:41.370Z,9.50
2023-04-08T20:44:10.648Z,9.50
2023-04-08T20:46:39.961Z,9.40
2023-04-08T20:49:06.819Z,9.40
2023-04-08T20:51:33.708Z,9.40
2023-04-08T20:54:00.779Z,9.30
2023-04-08T20:56:27.899Z,9.30
2023-04-08T20:58:54.953Z,9.30
2023-04-08T21:01:24.005Z,9.20
2023-04-08T21:03:53.304Z,9.20
2023-04-08T21:06:20.868Z,9.10
2023-04-08T21:08:48.165Z,9.20
2023-04-08T21:11:15.646Z,9.10
2023-04-08T21:13:42.742Z,9.20
2023-04-08T21:16:09.525Z,9.20
2023-04-08T21:18:38.193Z,9.30
2023-04-08T21:21:04.949Z,9.30
2023-04-08T21:23:34.106Z,9.30
2023-04-08T21:26:03.135Z,9.40
2023-04-08T21:28:30.379Z,9.40
2023-04-08T21:31:07.188Z,9.30
2023-04-08T21:33:33.943Z,9.30
2023-04-08T21:36:03.118Z,9.30
2023-04-08T21:38:30.037Z,9.20
2023-04-08T21:40:56.866Z,9.20
2023-04-08T21:43:23.659Z,9.20
2023-04-08T21:45:50.409Z,9.10
2023-04-08T21:48:17.312Z,9.10
2023-04-08T21:50:46.272Z,9.10
2023-04-08T21:53:15.960Z,9.00
2023-04-08T21:55:42.688Z,9.00
2023-04-08T21:58:12.101Z,9.00
2023-04-08T22:00:41.610Z,8.90
2023-04-08T22:03:11.024Z,8.90
2023-04-08T22:05:40.316Z,8.80
2023-04-08T22:08:11.526Z,8.80
2023-04-08T22:10:38.374Z,8.80
2023-04-08T22:13:05.085Z,8.70
2023-04-08T22:15:31.875Z,8.70
2023-04-08T22:18:01.735Z,8.70
2023-04-08T22:20:30.940Z,8.70
2023-04-08T22:22:57.605Z,8.70
2023-04-08T22:25:26.692Z,8.70
2023-04-08T22:27:53.454Z,8.70
2023-04-08T22:30:21.410Z,8.70
2023-04-08T22:32:48.196Z,8.60
2023-04-08T22:35:15.365Z,8.60
2023-04-08T22:37:42.063Z,8.60
2023-04-08T22:40:09.042Z,8.60
2023-04-08T22:42:36.107Z,8.50
2023-04-08T22:45:03.003Z,8.50
2023-04-08T22:47:29.771Z,8.50
2023-04-08T22:49:56.577Z,8.40
2023-04-08T22:52:26.003Z,8.40
2023-04-08T22:54:55.474Z,8.40
2023-04-08T22:57:24.576Z,8.30
2023-04-08T22:59:51.332Z,8.30
2023-04-08T23:02:18.193Z,8.20
2023-04-08T23:04:45.239Z,8.20
2023-04-08T23:07:11.980Z,8.20
2023-04-08T23:09:38.803Z,8.10
2023-04-08T23:12:08.083Z,8.10
2023-04-08T23:14:39.724Z,8.00
2023-04-08T23:17:06.656Z,8.00
2023-04-08T23:19:33.393Z,8.00
2023-04-08T23:22:02.554Z,8.00
2023-04-08T23:24:29.294Z,7.90
2023-04-08T23:26:56.736Z,7.90
2023-04-08T23:29:26.109Z,7.90
2023-04-08T23:31:52.880Z,7.90
2023-04-08T23:34:19.595Z,7.80
2023-04-08T23:36:46.341Z,7.80
2023-04-08T23:39:13.051Z,7.80
2023-04-08T23:41:39.804Z,7.80
2023-04-08T23:44:06.573Z,7.70
2023-04-08T23:46:33.320Z,7.70
2023-04-08T23:49:06.023Z,7.70
2023-04-08T23:51:32.771Z,7.70
2023-04-08T23:54:03.947Z,7.60
2023-04-08T23:56:30.705Z,7.60
2023-04-08T23:58:59.586Z,7.60
